sensor_id;sensor_type;location;lat;lon;timestamp;temperature;humidity
25320;DHT22;13256;49.012;8.610;2023-01-05T00:02:24;11.70;99.90
25320;DHT22;13256;49.012;8.610;2023-01-05T00:04:53;11.70;99.90
25320;DHT22;13256;49.012;8.610;2023-01-05T00:07:22;11.70;99.90
25320;DHT22;13256;49.012;8.610;2023-01-05T00:09:49;11.60;99.90
25320;DHT22;13256;49.012;8.610;2023-01-05T00:12:16;11.60;99.90
25320;DHT22;13256;49.012;8.610;2023-01-05T00:15:01;11.70;99.90
25320;DHT22;13256;49.012;8.610;2023-01-05T00:17:51;11.70;99.90
25320;DHT22;13256;49.012;8.610;2023-01-05T00:20:47;11.70;99.90
25320;DHT22;13256;49.012;8.610;2023-01-05T00:23:33;11.70;99.90
25320;DHT22;13256;49.012;8.610;2023-01-05T00:25:59;11.60;99.90
25320;DHT22;13256;49.012;8.610;2023-01-05T00:28:33;11.70;99.90
25320;DHT22;13256;49.012;8.610;2023-01-05T00:31:00;11.70;99.90
25320;DHT22;13256;49.012;8.610;2023-01-05T00:33:27;11.70;99.90
25320;DHT22;13256;49.012;8.610;2023-01-05T00:35:55;11.80;99.90
25320;DHT22;13256;49.012;8.610;2023-01-05T00:38:27;11.80;99.90
25320;DHT22;13256;49.012;8.610;2023-01-05T00:40:53;11.80;99.90
25320;DHT22;13256;49.012;8.610;2023-01-05T00:43:21;11.90;99.90
25320;DHT22;13256;49.012;8.610;2023-01-05T00:45:47;11.90;99.90
25320;DHT22;13256;49.012;8.610;2023-01-05T00:48:17;11.90;99.90
25320;DHT22;13256;49.012;8.610;2023-01-05T00:50:45;11.90;99.90
25320;DHT22;13256;49.012;8.610;2023-01-05T00:53:12;12.00;99.90
25320;DHT22;13256;49.012;8.610;2023-01-05T00:55:40;11.90;99.90
25320;DHT22;13256;49.012;8.610;2023-01-05T00:58:07;11.90;99.90
25320;DHT22;13256;49.012;8.610;2023-01-05T01:00:38;12.00;99.90
25320;DHT22;13256;49.012;8.610;2023-01-05T01:03:13;12.00;99.90
25320;DHT22;13256;49.012;8.610;2023-01-05T01:05:54;12.00;99.90
25320;DHT22;13256;49.012;8.610;2023-01-05T01:08:26;12.00;99.90
25320;DHT22;13256;49.012;8.610;2023-01-05T01:10:55;12.10;99.90
25320;DHT22;13256;49.012;8.610;2023-01-05T01:16:31;11.90;99.90
25320;DHT22;13256;49.012;8.610;2023-01-05T01:19:00;11.90;99.90
25320;DHT22;13256;49.012;8.610;2023-01-05T01:21:31;11.90;99.90
25320;DHT22;13256;49.012;8.610;2023-01-05T01:23:58;11.90;99.90
25320;DHT22;13256;49.012;8.610;2023-01-05T01:26:26;11.90;99.90
25320;DHT22;13256;49.012;8.610;2023-01-05T01:28:53;11.90;99.90
25320;DHT22;13256;49.012;8.610;2023-01-05T01:31:20;11.80;99.90
25320;DHT22;13256;49.012;8.610;2023-01-05T01:33:47;11.80;99.90
25320;DHT22;13256;49.012;8.610;2023-01-05T01:36:14;11.80;99.90
25320;DHT22;13256;49.012;8.610;2023-01-05T01:38:44;11.90;99.90
25320;DHT22;13256;49.012;8.610;2023-01-05T01:46:58;11.90;99.90
25320;DHT22;13256;49.012;8.610;2023-01-05T01:49:25;11.90;99.90
25320;DHT22;13256;49.012;8.610;2023-01-05T01:51:55;11.90;99.90
25320;DHT22;13256;49.012;8.610;2023-01-05T01:54:22;11.90;99.90
25320;DHT22;13256;49.012;8.610;2023-01-05T01:56:54;11.90;99.90
25320;DHT22;13256;49.012;8.610;2023-01-05T01:59:25;11.90;99.90
25320;DHT22;13256;49.012;8.610;2023-01-05T02:01:56;12.00;99.90
25320;DHT22;13256;49.012;8.610;2023-01-05T02:04:27;12.00;99.90
25320;DHT22;13256;49.012;8.610;2023-01-05T02:06:56;12.00;99.90
25320;DHT22;13256;49.012;8.610;2023-01-05T02:09:25;12.00;99.90
25320;DHT22;13256;49.012;8.610;2023-01-05T02:20:33;12.00;99.90
25320;DHT22;13256;49.012;8.610;2023-01-05T02:31:35;11.90;99.90
25320;DHT22;13256;49.012;8.610;2023-01-05T02:34:36;12.00;99.90
25320;DHT22;13256;49.012;8.610;2023-01-05T02:37:08;12.10;99.90
25320;DHT22;13256;49.012;8.610;2023-01-05T02:40:20;12.10;99.90
25320;DHT22;13256;49.012;8.610;2023-01-05T02:42:50;12.10;99.90
25320;DHT22;13256;49.012;8.610;2023-01-05T02:45:21;12.10;99.90
25320;DHT22;13256;49.012;8.610;2023-01-05T02:47:54;12.00;99.90
25320;DHT22;13256;49.012;8.610;2023-01-05T02:50:29;11.90;99.90
25320;DHT22;13256;49.012;8.610;2023-01-05T02:53:24;11.80;99.90
25320;DHT22;13256;49.012;8.610;2023-01-05T03:01:44;11.70;99.90
25320;DHT22;13256;49.012;8.610;2023-01-05T03:04:19;11.60;99.90
25320;DHT22;13256;49.012;8.610;2023-01-05T03:07:01;11.60;99.90
25320;DHT22;13256;49.012;8.610;2023-01-05T03:09:49;11.60;99.90
25320;DHT22;13256;49.012;8.610;2023-01-05T03:12:26;11.60;99.90
25320;DHT22;13256;49.012;8.610;2023-01-05T03:15:43;11.60;99.90
25320;DHT22;13256;49.012;8.610;2023-01-05T03:18:16;11.70;99.90
25320;DHT22;13256;49.012;8.610;2023-01-05T03:20:52;11.70;99.90
25320;DHT22;13256;49.012;8.610;2023-01-05T03:23:21;11.70;99.90
25320;DHT22;13256;49.012;8.610;2023-01-05T03:26:08;11.60;99.90
25320;DHT22;13256;49.012;8.610;2023-01-05T03:29:00;11.60;99.90
25320;DHT22;13256;49.012;8.610;2023-01-05T03:32:04;11.50;99.90
25320;DHT22;13256;49.012;8.610;2023-01-05T03:35:01;11.50;99.90
25320;DHT22;13256;49.012;8.610;2023-01-05T03:37:53;11.50;99.90
25320;DHT22;13256;49.012;8.610;2023-01-05T03:40:33;11.40;99.90
25320;DHT22;13256;49.012;8.610;2023-01-05T03:43:02;11.40;99.90
25320;DHT22;13256;49.012;8.610;2023-01-05T03:45:40;11.40;99.90
25320;DHT22;13256;49.012;8.610;2023-01-05T03:48:13;11.40;99.90
25320;DHT22;13256;49.012;8.610;2023-01-05T03:50:43;11.40;99.90
25320;DHT22;13256;49.012;8.610;2023-01-05T03:53:13;11.30;99.90
25320;DHT22;13256;49.012;8.610;2023-01-05T03:55:43;11.30;99.90
25320;DHT22;13256;49.012;8.610;2023-01-05T03:58:12;11.30;99.90
25320;DHT22;13256;49.012;8.610;2023-01-05T04:00:46;11.30;99.90
25320;DHT22;13256;49.012;8.610;2023-01-05T04:03:14;11.30;99.90
25320;DHT22;13256;49.012;8.610;2023-01-05T04:05:42;11.20;99.90
25320;DHT22;13256;49.012;8.610;2023-01-05T04:08:13;11.20;99.90
25320;DHT22;13256;49.012;8.610;2023-01-05T04:10:41;11.20;99.90
25320;DHT22;13256;49.012;8.610;2023-01-05T04:13:09;11.20;99.90
25320;DHT22;13256;49.012;8.610;2023-01-05T04:15:39;11.10;99.90
25320;DHT22;13256;49.012;8.610;2023-01-05T04:18:09;11.10;99.90
25320;DHT22;13256;49.012;8.610;2023-01-05T04:20:36;11.10;99.90
25320;DHT22;13256;49.012;8.610;2023-01-05T04:28:41;11.00;99.90
25320;DHT22;13256;49.012;8.610;2023-01-05T04:31:10;11.00;99.90
25320;DHT22;13256;49.012;8.610;2023-01-05T04:33:41;11.00;99.90
25320;DHT22;13256;49.012;8.610;2023-01-05T04:36:16;11.00;99.90
25320;DHT22;13256;49.012;8.610;2023-01-05T04:38:45;11.00;99.90
25320;DHT22;13256;49.012;8.610;2023-01-05T04:41:12;11.00;99.90
25320;DHT22;13256;49.012;8.610;2023-01-05T04:43:52;11.00;99.90
25320;DHT22;13256;49.012;8.610;2023-01-05T04:46:20;11.00;99.90
25320;DHT22;13256;49.012;8.610;2023-01-05T04:48:49;11.00;99.90
25320;DHT22;13256;49.012;8.610;2023-01-05T04:51:20;11.10;99.90
25320;DHT22;13256;49.012;8.610;2023-01-05T04:53:48;11.10;99.90
25320;DHT22;13256;49.012;8.610;2023-01-05T04:56:18;11.00;99.90
25320;DHT22;13256;49.012;8.610;2023-01-05T04:58:47;11.10;99.90
25320;DHT22;13256;49.012;8.610;2023-01-05T05:01:14;11.10;99.90
25320;DHT22;13256;49.012;8.610;2023-01-05T05:03:51;11.10;99.90
25320;DHT22;13256;49.012;8.610;2023-01-05T05:06:20;11.10;99.90
25320;DHT22;13256;49.012;8.610;2023-01-05T05:08:49;11.10;99.90
25320;DHT22;13256;49.012;8.610;2023-01-05T05:11:18;11.10;99.90
25320;DHT22;13256;49.012;8.610;2023-01-05T05:13:50;11.10;99.90
25320;DHT22;13256;49.012;8.610;2023-01-05T05:16:19;11.10;99.90
25320;DHT22;13256;49.012;8.610;2023-01-05T05:18:49;11.00;99.90
25320;DHT22;13256;49.012;8.610;2023-01-05T05:21:25;11.10;99.90
25320;DHT22;13256;49.012;8.610;2023-01-05T05:23:52;11.10;99.90
25320;DHT22;13256;49.012;8.610;2023-01-05T05:26:20;11.00;99.90
25320;DHT22;13256;49.012;8.610;2023-01-05T05:28:51;11.00;99.90
25320;DHT22;13256;49.012;8.610;2023-01-05T05:31:20;11.00;99.90
25320;DHT22;13256;49.012;8.610;2023-01-05T05:33:47;11.00;99.90
25320;DHT22;13256;49.012;8.610;2023-01-05T05:36:14;11.00;99.90
25320;DHT22;13256;49.012;8.610;2023-01-05T05:38:40;11.00;99.90
25320;DHT22;13256;49.012;8.610;2023-01-05T05:41:07;11.00;99.90
25320;DHT22;13256;49.012;8.610;2023-01-05T05:43:34;11.00;99.90
25320;DHT22;13256;49.012;8.610;2023-01-05T05:46:05;10.90;99.90
25320;DHT22;13256;49.012;8.610;2023-01-05T05:48:35;10.90;99.90
25320;DHT22;13256;49.012;8.610;2023-01-05T05:51:02;10.90;99.90
25320;DHT22;13256;49.012;8.610;2023-01-05T05:53:54;10.90;99.90
25320;DHT22;13256;49.012;8.610;2023-01-05T05:56:20;10.90;99.90
25320;DHT22;13256;49.012;8.610;2023-01-05T05:58:47;10.90;99.90
25320;DHT22;13256;49.012;8.610;2023-01-05T06:01:14;10.90;99.90
25320;DHT22;13256;49.012;8.610;2023-01-05T06:03:41;10.90;99.90
25320;DHT22;13256;49.012;8.610;2023-01-05T06:06:08;10.90;99.90
25320;DHT22;13256;49.012;8.610;2023-01-05T06:08:38;10.80;99.90
25320;DHT22;13256;49.012;8.610;2023-01-05T06:11:33;10.90;99.90
25320;DHT22;13256;49.012;8.610;2023-01-05T06:14:04;10.90;99.90
25320;DHT22;13256;49.012;8.610;2023-01-05T06:16:31;10.90;99.90
25320;DHT22;13256;49.012;8.610;2023-01-05T06:19:03;10.80;99.90
25320;DHT22;13256;49.012;8.610;2023-01-05T06:21:31;10.90;99.90
25320;DHT22;13256;49.012;8.610;2023-01-05T06:23:58;10.90;99.90
25320;DHT22;13256;49.012;8.610;2023-01-05T06:26:27;10.90;99.90
25320;DHT22;13256;49.012;8.610;2023-01-05T06:28:56;10.90;99.90
25320;DHT22;13256;49.012;8.610;2023-01-05T06:31:28;10.90;99.90
25320;DHT22;13256;49.012;8.610;2023-01-05T06:33:56;10.90;99.90
25320;DHT22;13256;49.012;8.610;2023-01-05T06:36:25;10.90;99.90
25320;DHT22;13256;49.012;8.610;2023-01-05T06:38:52;10.90;99.90
25320;DHT22;13256;49.012;8.610;2023-01-05T06:41:21;10.90;99.90
25320;DHT22;13256;49.012;8.610;2023-01-05T06:43:48;10.90;99.90
25320;DHT22;13256;49.012;8.610;2023-01-05T06:46:16;10.80;99.90
25320;DHT22;13256;49.012;8.610;2023-01-05T06:48:44;10.80;99.90
25320;DHT22;13256;49.012;8.610;2023-01-05T06:51:10;10.80;99.90
25320;DHT22;13256;49.012;8.610;2023-01-05T06:53:41;10.80;99.90
25320;DHT22;13256;49.012;8.610;2023-01-05T06:56:08;10.80;99.90
25320;DHT22;13256;49.012;8.610;2023-01-05T06:58:36;10.80;99.90
25320;DHT22;13256;49.012;8.610;2023-01-05T07:01:05;10.80;99.90
25320;DHT22;13256;49.012;8.610;2023-01-05T07:03:35;10.80;99.90
25320;DHT22;13256;49.012;8.610;2023-01-05T07:06:02;10.80;99.90
25320;DHT22;13256;49.012;8.610;2023-01-05T07:08:30;10.80;99.90
25320;DHT22;13256;49.012;8.610;2023-01-05T07:10:58;10.80;99.90
25320;DHT22;13256;49.012;8.610;2023-01-05T07:13:26;10.80;99.90
25320;DHT22;13256;49.012;8.610;2023-01-05T07:15:58;10.80;99.90
25320;DHT22;13256;49.012;8.610;2023-01-05T07:18:27;10.70;99.90
25320;DHT22;13256;49.012;8.610;2023-01-05T07:20:58;10.70;99.90
25320;DHT22;13256;49.012;8.610;2023-01-05T07:23:26;10.70;99.90
25320;DHT22;13256;49.012;8.610;2023-01-05T07:26:00;10.80;99.90
25320;DHT22;13256;49.012;8.610;2023-01-05T07:28:34;10.80;99.90
25320;DHT22;13256;49.012;8.610;2023-01-05T07:31:02;10.80;99.90
25320;DHT22;13256;49.012;8.610;2023-01-05T07:33:31;10.80;99.90
25320;DHT22;13256;49.012;8.610;2023-01-05T07:37:12;10.80;99.90
25320;DHT22;13256;49.012;8.610;2023-01-05T07:39:44;10.80;99.90
25320;DHT22;13256;49.012;8.610;2023-01-05T07:42:12;10.80;99.90
25320;DHT22;13256;49.012;8.610;2023-01-05T07:44:43;10.80;99.90
25320;DHT22;13256;49.012;8.610;2023-01-05T07:47:15;10.80;99.90
25320;DHT22;13256;49.012;8.610;2023-01-05T07:49:46;10.80;99.90
25320;DHT22;13256;49.012;8.610;2023-01-05T07:52:14;10.80;99.90
25320;DHT22;13256;49.012;8.610;2023-01-05T07:54:40;10.80;99.90
25320;DHT22;13256;49.012;8.610;2023-01-05T07:57:10;10.80;99.90
25320;DHT22;13256;49.012;8.610;2023-01-05T07:59:40;10.80;99.90
25320;DHT22;13256;49.012;8.610;2023-01-05T08:02:08;10.80;99.90
25320;DHT22;13256;49.012;8.610;2023-01-05T08:04:36;10.80;99.90
25320;DHT22;13256;49.012;8.610;2023-01-05T08:07:04;10.80;99.90
25320;DHT22;13256;49.012;8.610;2023-01-05T08:09:38;10.90;99.90
25320;DHT22;13256;49.012;8.610;2023-01-05T08:12:23;10.80;99.90
25320;DHT22;13256;49.012;8.610;2023-01-05T08:14:54;10.90;99.90
25320;DHT22;13256;49.012;8.610;2023-01-05T08:17:20;10.90;99.90
25320;DHT22;13256;49.012;8.610;2023-01-05T08:19:47;10.90;99.90
25320;DHT22;13256;49.012;8.610;2023-01-05T08:22:17;10.90;99.90
25320;DHT22;13256;49.012;8.610;2023-01-05T08:24:46;10.90;99.90
25320;DHT22;13256;49.012;8.610;2023-01-05T08:27:15;10.90;99.90
25320;DHT22;13256;49.012;8.610;2023-01-05T08:29:42;11.00;99.90
25320;DHT22;13256;49.012;8.610;2023-01-05T08:32:09;11.00;99.90
25320;DHT22;13256;49.012;8.610;2023-01-05T08:34:39;11.00;99.90
25320;DHT22;13256;49.012;8.610;2023-01-05T08:37:06;11.00;99.90
25320;DHT22;13256;49.012;8.610;2023-01-05T08:39:39;11.00;99.90
25320;DHT22;13256;49.012;8.610;2023-01-05T08:42:06;11.00;99.90
25320;DHT22;13256;49.012;8.610;2023-01-05T08:44:32;11.00;99.90
25320;DHT22;13256;49.012;8.610;2023-01-05T08:47:05;11.10;99.90
25320;DHT22;13256;49.012;8.610;2023-01-05T08:49:32;11.10;99.90
25320;DHT22;13256;49.012;8.610;2023-01-05T08:52:01;11.10;99.90
25320;DHT22;13256;49.012;8.610;2023-01-05T08:54:29;11.10;99.90
25320;DHT22;13256;49.012;8.610;2023-01-05T08:56:59;11.10;99.90
25320;DHT22;13256;49.012;8.610;2023-01-05T08:59:27;11.10;99.90
25320;DHT22;13256;49.012;8.610;2023-01-05T09:01:54;11.10;99.90
25320;DHT22;13256;49.012;8.610;2023-01-05T09:04:21;11.10;99.90
25320;DHT22;13256;49.012;8.610;2023-01-05T09:06:53;11.10;99.90
25320;DHT22;13256;49.012;8.610;2023-01-05T09:09:23;11.10;99.90
25320;DHT22;13256;49.012;8.610;2023-01-05T09:11:53;11.10;99.90
25320;DHT22;13256;49.012;8.610;2023-01-05T09:14:23;11.10;99.90
25320;DHT22;13256;49.012;8.610;2023-01-05T09:16:50;11.10;99.90
25320;DHT22;13256;49.012;8.610;2023-01-05T09:19:37;11.10;99.90
25320;DHT22;13256;49.012;8.610;2023-01-05T09:22:08;11.10;99.90
25320;DHT22;13256;49.012;8.610;2023-01-05T09:24:35;11.10;99.90
25320;DHT22;13256;49.012;8.610;2023-01-05T09:27:08;11.10;99.90
25320;DHT22;13256;49.012;8.610;2023-01-05T09:29:35;11.10;99.90
25320;DHT22;13256;49.012;8.610;2023-01-05T09:32:02;11.20;99.90
25320;DHT22;13256;49.012;8.610;2023-01-05T09:34:28;11.20;99.90
25320;DHT22;13256;49.012;8.610;2023-01-05T09:37:00;11.20;99.90
25320;DHT22;13256;49.012;8.610;2023-01-05T09:39:27;11.30;99.90
25320;DHT22;13256;49.012;8.610;2023-01-05T09:41:57;11.20;99.90
25320;DHT22;13256;49.012;8.610;2023-01-05T09:47:28;11.30;99.90
25320;DHT22;13256;49.012;8.610;2023-01-05T09:49:59;11.30;99.90
25320;DHT22;13256;49.012;8.610;2023-01-05T09:52:29;11.30;99.90
25320;DHT22;13256;49.012;8.610;2023-01-05T09:55:14;11.40;99.90
25320;DHT22;13256;49.012;8.610;2023-01-05T10:00:21;11.40;99.90
25320;DHT22;13256;49.012;8.610;2023-01-05T10:03:05;11.40;99.90
25320;DHT22;13256;49.012;8.610;2023-01-05T10:05:41;11.50;99.90
25320;DHT22;13256;49.012;8.610;2023-01-05T10:08:19;11.50;99.90
25320;DHT22;13256;49.012;8.610;2023-01-05T10:14:09;11.60;99.90
25320;DHT22;13256;49.012;8.610;2023-01-05T10:16:43;11.60;99.90
25320;DHT22;13256;49.012;8.610;2023-01-05T10:19:34;11.70;99.90
25320;DHT22;13256;49.012;8.610;2023-01-05T10:30:59;11.70;99.90
25320;DHT22;13256;49.012;8.610;2023-01-05T10:33:49;11.70;99.90
25320;DHT22;13256;49.012;8.610;2023-01-05T10:42:20;11.80;99.90
25320;DHT22;13256;49.012;8.610;2023-01-05T10:45:00;11.80;99.90
25320;DHT22;13256;49.012;8.610;2023-01-05T10:47:30;11.90;99.90
25320;DHT22;13256;49.012;8.610;2023-01-05T10:50:20;11.90;99.90
25320;DHT22;13256;49.012;8.610;2023-01-05T10:52:47;11.90;99.90
25320;DHT22;13256;49.012;8.610;2023-01-05T10:55:16;11.90;99.90
25320;DHT22;13256;49.012;8.610;2023-01-05T10:57:47;11.90;99.90
25320;DHT22;13256;49.012;8.610;2023-01-05T11:00:16;11.90;99.90
25320;DHT22;13256;49.012;8.610;2023-01-05T11:02:51;11.90;99.90
25320;DHT22;13256;49.012;8.610;2023-01-05T11:05:33;11.90;99.90
25320;DHT22;13256;49.012;8.610;2023-01-05T11:08:06;11.90;99.90
25320;DHT22;13256;49.012;8.610;2023-01-05T11:11:00;11.90;99.90
25320;DHT22;13256;49.012;8.610;2023-01-05T11:13:40;12.00;99.90
25320;DHT22;13256;49.012;8.610;2023-01-05T11:16:33;12.00;99.90
25320;DHT22;13256;49.012;8.610;2023-01-05T11:19:02;12.10;99.90
25320;DHT22;13256;49.012;8.610;2023-01-05T11:24:34;12.10;99.90
25320;DHT22;13256;49.012;8.610;2023-01-05T11:27:22;12.10;99.90
25320;DHT22;13256;49.012;8.610;2023-01-05T11:32:40;12.10;99.90
25320;DHT22;13256;49.012;8.610;2023-01-05T11:35:24;12.00;99.90
25320;DHT22;13256;49.012;8.610;2023-01-05T11:38:25;12.00;99.90
25320;DHT22;13256;49.012;8.610;2023-01-05T11:40:55;11.90;99.90
25320;DHT22;13256;49.012;8.610;2023-01-05T11:43:24;11.90;99.90
25320;DHT22;13256;49.012;8.610;2023-01-05T11:46:01;11.90;99.90
25320;DHT22;13256;49.012;8.610;2023-01-05T11:48:31;11.90;99.90
25320;DHT22;13256;49.012;8.610;2023-01-05T11:51:06;12.00;99.90
25320;DHT22;13256;49.012;8.610;2023-01-05T12:09:38;12.20;99.90
25320;DHT22;13256;49.012;8.610;2023-01-05T12:12:15;12.20;99.90
25320;DHT22;13256;49.012;8.610;2023-01-05T12:15:19;12.20;99.90
25320;DHT22;13256;49.012;8.610;2023-01-05T12:21:23;12.20;99.90
25320;DHT22;13256;49.012;8.610;2023-01-05T12:29:50;12.10;99.90
25320;DHT22;13256;49.012;8.610;2023-01-05T12:45:28;12.00;99.90
25320;DHT22;13256;49.012;8.610;2023-01-05T12:48:16;12.00;99.90
25320;DHT22;13256;49.012;8.610;2023-01-05T12:51:11;12.00;99.90
25320;DHT22;13256;49.012;8.610;2023-01-05T12:53:58;12.00;99.90
25320;DHT22;13256;49.012;8.610;2023-01-05T12:56:43;12.00;99.90
25320;DHT22;13256;49.012;8.610;2023-01-05T12:59:31;12.10;99.90
25320;DHT22;13256;49.012;8.610;2023-01-05T13:02:39;12.00;99.90
25320;DHT22;13256;49.012;8.610;2023-01-05T13:05:18;12.10;99.90
25320;DHT22;13256;49.012;8.610;2023-01-05T13:10:46;12.10;99.90
25320;DHT22;13256;49.012;8.610;2023-01-05T13:13:21;12.10;99.90
25320;DHT22;13256;49.012;8.610;2023-01-05T13:15:57;12.10;99.90
25320;DHT22;13256;49.012;8.610;2023-01-05T13:18:36;12.10;99.90
25320;DHT22;13256;49.012;8.610;2023-01-05T13:21:04;12.20;99.90
25320;DHT22;13256;49.012;8.610;2023-01-05T13:23:52;12.20;99.90
25320;DHT22;13256;49.012;8.610;2023-01-05T13:26:21;12.30;99.90
25320;DHT22;13256;49.012;8.610;2023-01-05T13:28:53;12.20;99.90
25320;DHT22;13256;49.012;8.610;2023-01-05T13:31:40;12.20;99.90
25320;DHT22;13256;49.012;8.610;2023-01-05T13:43:02;12.10;99.90
25320;DHT22;13256;49.012;8.610;2023-01-05T13:51:59;12.10;99.90
25320;DHT22;13256;49.012;8.610;2023-01-05T13:54:45;12.10;99.90
25320;DHT22;13256;49.012;8.610;2023-01-05T13:57:36;12.10;99.90
25320;DHT22;13256;49.012;8.610;2023-01-05T14:03:03;12.00;99.90
25320;DHT22;13256;49.012;8.610;2023-01-05T14:05:59;12.10;99.90
25320;DHT22;13256;49.012;8.610;2023-01-05T14:08:31;12.00;99.90
25320;DHT22;13256;49.012;8.610;2023-01-05T14:11:11;12.00;99.90
25320;DHT22;13256;49.012;8.610;2023-01-05T14:13:50;12.00;99.90
25320;DHT22;13256;49.012;8.610;2023-01-05T14:22:00;11.90;99.90
25320;DHT22;13256;49.012;8.610;2023-01-05T14:27:15;11.90;99.90
25320;DHT22;13256;49.012;8.610;2023-01-05T14:32:30;11.90;99.90
25320;DHT22;13256;49.012;8.610;2023-01-05T14:35:05;11.90;99.90
25320;DHT22;13256;49.012;8.610;2023-01-05T14:37:48;11.90;99.90
25320;DHT22;13256;49.012;8.610;2023-01-05T14:43:05;11.90;99.90
25320;DHT22;13256;49.012;8.610;2023-01-05T14:45:34;11.90;99.90
25320;DHT22;13256;49.012;8.610;2023-01-05T14:48:06;11.90;99.90
25320;DHT22;13256;49.012;8.610;2023-01-05T14:51:07;11.90;99.90
25320;DHT22;13256;49.012;8.610;2023-01-05T14:53:43;11.90;99.90
25320;DHT22;13256;49.012;8.610;2023-01-05T14:56:26;11.90;99.90
25320;DHT22;13256;49.012;8.610;2023-01-05T14:59:03;11.90;99.90
25320;DHT22;13256;49.012;8.610;2023-01-05T15:04:30;11.90;99.90
25320;DHT22;13256;49.012;8.610;2023-01-05T15:16:19;11.90;99.90
25320;DHT22;13256;49.012;8.610;2023-01-05T15:25:37;11.80;99.90
25320;DHT22;13256;49.012;8.610;2023-01-05T15:39:54;11.80;99.90
25320;DHT22;13256;49.012;8.610;2023-01-05T15:42:44;11.80;99.90
25320;DHT22;13256;49.012;8.610;2023-01-05T15:48:00;11.70;99.90
25320;DHT22;13256;49.012;8.610;2023-01-05T15:50:52;11.70;99.90
25320;DHT22;13256;49.012;8.610;2023-01-05T15:53:34;11.80;99.90
25320;DHT22;13256;49.012;8.610;2023-01-05T15:56:23;11.80;99.90
25320;DHT22;13256;49.012;8.610;2023-01-05T15:58:52;11.70;99.90
25320;DHT22;13256;49.012;8.610;2023-01-05T16:01:19;11.70;99.90
25320;DHT22;13256;49.012;8.610;2023-01-05T16:03:47;11.70;99.90
25320;DHT22;13256;49.012;8.610;2023-01-05T16:06:25;11.70;99.90
25320;DHT22;13256;49.012;8.610;2023-01-05T16:09:01;11.60;99.90
25320;DHT22;13256;49.012;8.610;2023-01-05T16:11:41;11.60;99.90
25320;DHT22;13256;49.012;8.610;2023-01-05T16:14:21;11.60;99.90
25320;DHT22;13256;49.012;8.610;2023-01-05T16:17:18;11.60;99.90
25320;DHT22;13256;49.012;8.610;2023-01-05T16:27:54;11.60;99.90
25320;DHT22;13256;49.012;8.610;2023-01-05T16:30:34;11.60;99.90
25320;DHT22;13256;49.012;8.610;2023-01-05T16:33:06;11.60;99.90
25320;DHT22;13256;49.012;8.610;2023-01-05T16:38:12;11.60;99.90
25320;DHT22;13256;49.012;8.610;2023-01-05T16:41:06;11.60;99.90
25320;DHT22;13256;49.012;8.610;2023-01-05T16:43:53;11.60;99.90
25320;DHT22;13256;49.012;8.610;2023-01-05T16:46:30;11.60;99.90
25320;DHT22;13256;49.012;8.610;2023-01-05T16:51:51;11.60;99.90
25320;DHT22;13256;49.012;8.610;2023-01-05T16:54:32;11.60;99.90
25320;DHT22;13256;49.012;8.610;2023-01-05T16:57:40;11.60;99.90
25320;DHT22;13256;49.012;8.610;2023-01-05T17:05:54;11.50;99.90
25320;DHT22;13256;49.012;8.610;2023-01-05T17:08:25;11.40;99.90
25320;DHT22;13256;49.012;8.610;2023-01-05T17:10:55;11.50;99.90
25320;DHT22;13256;49.012;8.610;2023-01-05T17:16:40;11.50;99.90
25320;DHT22;13256;49.012;8.610;2023-01-05T17:19:14;11.40;99.90
25320;DHT22;13256;49.012;8.610;2023-01-05T17:21:47;11.40;99.90
25320;DHT22;13256;49.012;8.610;2023-01-05T17:24:16;11.40;99.90
25320;DHT22;13256;49.012;8.610;2023-01-05T17:26:43;11.50;99.90
25320;DHT22;13256;49.012;8.610;2023-01-05T17:29:26;11.50;99.90
25320;DHT22;13256;49.012;8.610;2023-01-05T17:31:56;11.50;99.90
25320;DHT22;13256;49.012;8.610;2023-01-05T17:34:29;11.40;99.90
25320;DHT22;13256;49.012;8.610;2023-01-05T17:37:14;11.50;99.90
25320;DHT22;13256;49.012;8.610;2023-01-05T17:40:11;11.50;99.90
25320;DHT22;13256;49.012;8.610;2023-01-05T17:42:40;11.50;99.90
25320;DHT22;13256;49.012;8.610;2023-01-05T17:45:21;11.50;99.90
25320;DHT22;13256;49.012;8.610;2023-01-05T17:47:51;11.50;99.90
25320;DHT22;13256;49.012;8.610;2023-01-05T17:50:24;11.60;99.90
25320;DHT22;13256;49.012;8.610;2023-01-05T17:52:54;11.50;99.90
25320;DHT22;13256;49.012;8.610;2023-01-05T17:55:28;11.50;99.90
25320;DHT22;13256;49.012;8.610;2023-01-05T17:57:57;11.50;99.90
25320;DHT22;13256;49.012;8.610;2023-01-05T18:00:27;11.40;99.90
25320;DHT22;13256;49.012;8.610;2023-01-05T18:02:55;11.40;99.90
25320;DHT22;13256;49.012;8.610;2023-01-05T18:05:22;11.40;99.90
25320;DHT22;13256;49.012;8.610;2023-01-05T18:11:21;11.40;99.90
25320;DHT22;13256;49.012;8.610;2023-01-05T18:13:49;11.40;99.90
25320;DHT22;13256;49.012;8.610;2023-01-05T18:16:20;11.30;99.90
25320;DHT22;13256;49.012;8.610;2023-01-05T18:18:52;11.30;99.90
25320;DHT22;13256;49.012;8.610;2023-01-05T18:21:23;11.20;99.90
25320;DHT22;13256;49.012;8.610;2023-01-05T18:23:58;11.10;99.90
25320;DHT22;13256;49.012;8.610;2023-01-05T18:26:30;11.10;99.90
25320;DHT22;13256;49.012;8.610;2023-01-05T18:28:59;11.10;99.90
25320;DHT22;13256;49.012;8.610;2023-01-05T18:31:30;11.00;99.90
25320;DHT22;13256;49.012;8.610;2023-01-05T18:34:00;11.00;99.90
25320;DHT22;13256;49.012;8.610;2023-01-05T18:37:04;11.00;99.90
25320;DHT22;13256;49.012;8.610;2023-01-05T18:39:39;11.00;99.90
25320;DHT22;13256;49.012;8.610;2023-01-05T18:42:07;11.00;99.90
25320;DHT22;13256;49.012;8.610;2023-01-05T18:44:35;11.00;99.90
25320;DHT22;13256;49.012;8.610;2023-01-05T18:47:13;11.00;99.90
25320;DHT22;13256;49.012;8.610;2023-01-05T18:49:40;10.90;99.90
25320;DHT22;13256;49.012;8.610;2023-01-05T18:52:07;10.90;99.90
25320;DHT22;13256;49.012;8.610;2023-01-05T18:54:34;10.90;99.90
25320;DHT22;13256;49.012;8.610;2023-01-05T18:57:07;10.90;99.90
25320;DHT22;13256;49.012;8.610;2023-01-05T18:59:37;11.00;99.90
25320;DHT22;13256;49.012;8.610;2023-01-05T19:02:11;10.90;99.90
25320;DHT22;13256;49.012;8.610;2023-01-05T19:04:43;10.90;99.90
25320;DHT22;13256;49.012;8.610;2023-01-05T19:07:10;10.90;99.90
25320;DHT22;13256;49.012;8.610;2023-01-05T19:09:38;10.90;99.90
25320;DHT22;13256;49.012;8.610;2023-01-05T19:12:06;10.90;99.90
25320;DHT22;13256;49.012;8.610;2023-01-05T19:14:36;10.90;99.90
25320;DHT22;13256;49.012;8.610;2023-01-05T19:17:10;10.90;99.90
25320;DHT22;13256;49.012;8.610;2023-01-05T19:19:37;10.90;99.90
25320;DHT22;13256;49.012;8.610;2023-01-05T19:22:04;10.90;99.90
25320;DHT22;13256;49.012;8.610;2023-01-05T19:24:36;10.90;99.90
25320;DHT22;13256;49.012;8.610;2023-01-05T19:27:06;10.90;99.90
25320;DHT22;13256;49.012;8.610;2023-01-05T19:29:44;10.90;99.90
25320;DHT22;13256;49.012;8.610;2023-01-05T19:32:12;10.90;99.90